createdAt,value
2022-07-31T00:00:21.213Z,4.40
2022-07-31T00:02:49.012Z,4.10
2022-07-31T00:05:16.711Z,4.32
2022-07-31T00:07:44.471Z,4.20
2022-07-31T00:10:13.555Z,4.30
2022-07-31T00:12:41.348Z,4.65
2022-07-31T00:15:10.997Z,4.30
2022-07-31T00:17:39.452Z,4.53
2022-07-31T00:20:08.674Z,4.85
2022-07-31T00:22:36.490Z,4.78
2022-07-31T00:25:04.638Z,4.50
2022-07-31T00:27:34.293Z,4.50
2022-07-31T00:30:01.954Z,4.32
2022-07-31T00:32:29.667Z,3.67
2022-07-31T00:34:57.532Z,4.47
2022-07-31T00:37:25.357Z,4.50
2022-07-31T00:39:54.358Z,4.57
2022-07-31T00:42:23.636Z,4.10
2022-07-31T00:44:53.628Z,4.32
2022-07-31T00:47:23.793Z,3.85
2022-07-31T00:49:53.418Z,3.92
2022-07-31T00:52:21.484Z,3.72
2022-07-31T00:54:49.190Z,3.47
2022-07-31T00:57:16.927Z,3.67
2022-07-31T00:59:45.110Z,3.58
2022-07-31T01:02:14.565Z,3.72
2022-07-31T01:04:44.592Z,3.88
2022-07-31T01:07:13.655Z,3.25
2022-07-31T01:09:41.511Z,3.63
2022-07-31T01:12:16.413Z,3.88
2022-07-31T01:14:48.837Z,3.80
2022-07-31T01:17:37.370Z,3.40
2022-07-31T01:20:07.856Z,3.35
2022-07-31T01:22:53.682Z,3.70
2022-07-31T01:25:34.106Z,3.33
2022-07-31T01:28:12.936Z,3.35
2022-07-31T01:30:52.973Z,3.42
2022-07-31T01:33:33.928Z,3.40
2022-07-31T01:36:09.171Z,3.70
2022-07-31T01:38:45.881Z,3.05
2022-07-31T01:41:16.846Z,4.10
2022-07-31T01:43:49.062Z,3.65
2022-07-31T01:46:21.392Z,3.55
2022-07-31T01:48:50.190Z,3.10
2022-07-31T01:51:19.803Z,3.30
2022-07-31T01:53:49.405Z,3.47
2022-07-31T01:56:18.784Z,3.55
2022-07-31T01:58:50.725Z,3.45
2022-07-31T02:01:26.655Z,3.50
2022-07-31T02:03:56.874Z,3.40
2022-07-31T02:06:28.830Z,3.20
2022-07-31T02:08:59.781Z,3.15
2022-07-31T02:11:27.530Z,3.20
2022-07-31T02:13:58.368Z,3.42
2022-07-31T02:16:28.623Z,3.40
2022-07-31T02:18:59.397Z,3.17
2022-07-31T02:21:27.417Z,3.30
2022-07-31T02:23:56.687Z,3.33
2022-07-31T02:26:28.476Z,3.38
2022-07-31T02:28:56.860Z,3.33
2022-07-31T02:31:25.477Z,3.03
2022-07-31T02:33:57.618Z,2.97
2022-07-31T02:36:25.832Z,3.53
2022-07-31T02:38:55.017Z,3.50
2022-07-31T02:41:23.626Z,3.53
2022-07-31T02:43:51.940Z,3.47
2022-07-31T02:46:21.139Z,3.42
2022-07-31T02:48:51.961Z,2.90
2022-07-31T02:51:21.310Z,3.10
2022-07-31T02:53:49.154Z,3.20
2022-07-31T02:56:17.555Z,3.22
2022-07-31T02:58:45.533Z,3.38
2022-07-31T03:01:14.410Z,2.80
2022-07-31T03:03:43.020Z,2.95
2022-07-31T03:06:10.779Z,3.08
2022-07-31T03:08:40.129Z,3.08
2022-07-31T03:11:07.883Z,2.70
2022-07-31T03:13:40.841Z,3.20
2022-07-31T03:16:11.840Z,2.78
2022-07-31T03:18:41.207Z,3.33
2022-07-31T03:21:10.815Z,2.75
2022-07-31T03:23:41.729Z,2.88
2022-07-31T03:26:10.007Z,2.72
2022-07-31T03:28:37.982Z,2.97
2022-07-31T03:31:07.784Z,2.63
2022-07-31T03:33:36.297Z,2.72
2022-07-31T03:36:04.454Z,2.95
2022-07-31T03:38:39.676Z,2.67
2022-07-31T03:41:14.444Z,2.72
2022-07-31T03:43:47.834Z,2.95
2022-07-31T03:46:17.236Z,2.90
2022-07-31T03:48:45.589Z,2.80
2022-07-31T03:51:14.090Z,2.58
2022-07-31T03:53:43.481Z,2.63
2022-07-31T03:56:13.115Z,3.00
2022-07-31T03:58:41.087Z,2.50
2022-07-31T04:01:10.630Z,2.60
2022-07-31T04:03:40.396Z,3.00
2022-07-31T04:06:09.089Z,2.90
2022-07-31T04:08:36.811Z,2.60
2022-07-31T04:11:04.675Z,2.65
2022-07-31T04:13:33.771Z,3.10
2022-07-31T04:16:04.444Z,3.40
2022-07-31T04:18:32.078Z,2.67
2022-07-31T04:20:59.923Z,2.75
2022-07-31T04:23:32.169Z,3.15
2022-07-31T04:26:03.661Z,2.75
2022-07-31T04:28:33.593Z,3.15
2022-07-31T04:31:01.253Z,2.97
2022-07-31T04:33:29.292Z,2.80
2022-07-31T04:35:58.695Z,3.20
2022-07-31T04:38:26.392Z,2.80
2022-07-31T04:40:54.172Z,2.90
2022-07-31T04:43:21.854Z,2.72
2022-07-31T04:45:50.949Z,2.78
2022-07-31T04:48:18.815Z,3.00
2022-07-31T04:50:47.006Z,3.00
2022-07-31T04:53:14.691Z,3.00
2022-07-31T04:56:03.868Z,3.00
2022-07-31T04:58:31.696Z,2.70
2022-07-31T05:01:00.788Z,2.78
2022-07-31T05:03:28.896Z,3.10
2022-07-31T05:05:56.636Z,3.17
2022-07-31T05:08:24.470Z,2.55
2022-07-31T05:11:09.866Z,3.17
2022-07-31T05:13:37.499Z,2.70
2022-07-31T05:16:12.290Z,2.67
2022-07-31T05:18:39.954Z,2.88
2022-07-31T05:21:07.715Z,2.92
2022-07-31T05:23:35.463Z,3.20
2022-07-31T05:26:05.131Z,2.75
2022-07-31T05:28:33.139Z,2.60
2022-07-31T05:31:01.008Z,2.45
2022-07-31T05:33:30.127Z,2.55
2022-07-31T05:35:58.350Z,2.65
2022-07-31T05:38:26.420Z,2.63
2022-07-31T05:40:54.524Z,3.45
2022-07-31T05:43:22.245Z,2.90
2022-07-31T05:45:50.034Z,2.80
2022-07-31T05:48:18.316Z,2.60
2022-07-31T05:50:49.005Z,2.95
2022-07-31T05:53:17.326Z,3.33
2022-07-31T05:55:47.049Z,3.10
2022-07-31T05:58:16.934Z,2.90
2022-07-31T06:00:46.051Z,3.10
2022-07-31T06:03:14.014Z,2.70
2022-07-31T06:05:41.979Z,3.13
2022-07-31T06:08:11.681Z,2.90
2022-07-31T06:10:39.460Z,2.55
2022-07-31T06:13:07.285Z,2.97
2022-07-31T06:15:36.777Z,3.30
2022-07-31T06:18:04.988Z,3.20
2022-07-31T06:20:32.867Z,2.72
2022-07-31T06:23:02.228Z,2.88
2022-07-31T06:25:49.118Z,2.97
2022-07-31T06:28:17.768Z,2.72
2022-07-31T06:30:45.441Z,2.70
2022-07-31T06:33:15.880Z,3.10
2022-07-31T06:36:00.803Z,3.22
2022-07-31T06:38:30.798Z,3.00
2022-07-31T06:40:59.829Z,3.20
2022-07-31T06:43:29.990Z,3.08
2022-07-31T06:45:57.623Z,2.78
2022-07-31T06:48:25.365Z,3.03
2022-07-31T06:51:14.433Z,2.88
2022-07-31T06:53:43.881Z,2.53
2022-07-31T06:56:13.050Z,2.83
2022-07-31T06:58:40.789Z,3.20
2022-07-31T07:01:08.501Z,2.88
2022-07-31T07:03:36.665Z,3.20
2022-07-31T07:06:04.474Z,3.10
2022-07-31T07:08:32.277Z,2.80
2022-07-31T07:11:00.030Z,3.15
2022-07-31T07:13:45.668Z,2.70
2022-07-31T07:16:14.906Z,3.20
2022-07-31T07:18:43.053Z,3.13
2022-07-31T07:21:11.054Z,3.20
2022-07-31T07:23:38.774Z,3.15
2022-07-31T07:26:07.147Z,3.20
2022-07-31T07:28:36.651Z,2.85
2022-07-31T07:31:05.688Z,3.13
2022-07-31T07:33:39.738Z,2.65
2022-07-31T07:36:23.193Z,2.65
2022-07-31T07:38:53.428Z,2.63
2022-07-31T07:41:21.550Z,2.95
2022-07-31T07:43:52.400Z,3.00
2022-07-31T07:46:24.002Z,2.85
2022-07-31T07:48:52.503Z,2.88
2022-07-31T07:51:21.010Z,2.75
2022-07-31T07:53:49.236Z,2.67
2022-07-31T07:56:17.657Z,2.80
2022-07-31T07:58:45.546Z,3.08
2022-07-31T08:01:15.143Z,2.67
2022-07-31T08:03:50.949Z,3.00
2022-07-31T08:06:23.415Z,2.70
2022-07-31T08:08:51.398Z,2.97
2022-07-31T08:11:19.410Z,2.70
2022-07-31T08:13:51.016Z,2.83
2022-07-31T08:16:20.965Z,3.03
2022-07-31T08:18:48.882Z,2.50
2022-07-31T08:21:16.853Z,2.33
2022-07-31T08:23:44.626Z,2.58
2022-07-31T08:26:13.948Z,2.72
2022-07-31T08:28:50.175Z,2.80
2022-07-31T08:31:20.637Z,2.90
2022-07-31T08:33:48.486Z,2.55
2022-07-31T08:36:17.535Z,2.88
2022-07-31T08:38:45.690Z,2.95
2022-07-31T08:41:20.107Z,2.63
2022-07-31T08:44:01.607Z,3.15
2022-07-31T08:46:34.100Z,3.20
2022-07-31T08:49:05.835Z,2.80
2022-07-31T08:51:50.948Z,3.00
2022-07-31T08:54:20.470Z,2.42
2022-07-31T08:56:52.433Z,2.88
2022-07-31T08:59:20.891Z,3.00
2022-07-31T09:01:54.051Z,2.97
2022-07-31T09:04:23.486Z,2.53
2022-07-31T09:06:51.685Z,2.92
2022-07-31T09:09:20.850Z,3.00
2022-07-31T09:11:49.609Z,2.72
2022-07-31T09:14:29.737Z,3.53
2022-07-31T09:16:59.375Z,2.85
2022-07-31T09:19:53.513Z,2.80
2022-07-31T09:22:28.712Z,3.50
2022-07-31T09:25:08.707Z,5.78
2022-07-31T09:27:44.297Z,4.70
2022-07-31T09:30:13.016Z,3.20
2022-07-31T09:32:43.224Z,2.50
2022-07-31T09:35:12.794Z,3.25
2022-07-31T09:37:41.374Z,2.92
2022-07-31T09:40:10.385Z,3.53
2022-07-31T09:42:45.566Z,3.80
2022-07-31T09:45:21.919Z,3.00
2022-07-31T09:48:04.631Z,2.85
2022-07-31T09:50:32.365Z,2.53
2022-07-31T09:53:01.646Z,2.72
2022-07-31T09:55:30.090Z,2.38
2022-07-31T09:57:59.568Z,2.70
2022-07-31T10:00:28.740Z,2.53
2022-07-31T10:02:58.697Z,2.90
2022-07-31T10:05:28.202Z,2.25
2022-07-31T10:08:00.039Z,2.45
2022-07-31T10:10:41.990Z,2.40
2022-07-31T10:13:22.450Z,2.40
2022-07-31T10:15:57.993Z,2.15
2022-07-31T10:18:36.049Z,2.20
2022-07-31T10:21:08.592Z,2.50
2022-07-31T10:23:49.220Z,2.47
2022-07-31T10:26:17.486Z,2.30
2022-07-31T10:28:45.301Z,2.50
2022-07-31T10:31:13.613Z,2.47
2022-07-31T10:33:45.059Z,2.50
2022-07-31T10:36:17.833Z,2.60
2022-07-31T10:38:59.732Z,2.38
2022-07-31T10:41:38.957Z,2.17
2022-07-31T10:44:12.600Z,2.83
2022-07-31T10:46:40.826Z,2.53
2022-07-31T10:49:09.923Z,2.30
2022-07-31T10:51:47.561Z,2.45
2022-07-31T10:54:15.677Z,2.10
2022-07-31T10:56:47.522Z,2.35
2022-07-31T10:59:15.401Z,2.75
2022-07-31T11:01:53.072Z,2.83
2022-07-31T11:04:29.116Z,2.47
2022-07-31T11:06:56.999Z,2.25
2022-07-31T11:09:25.599Z,2.45
2022-07-31T11:11:54.016Z,2.63
2022-07-31T11:14:32.857Z,2.33
2022-07-31T11:17:00.522Z,2.60
2022-07-31T11:19:41.250Z,2.28
2022-07-31T11:22:32.246Z,2.28
2022-07-31T11:25:00.907Z,2.10
2022-07-31T11:27:32.751Z,2.72
2022-07-31T11:30:10.648Z,2.30
2022-07-31T11:32:40.630Z,2.38
2022-07-31T11:35:10.145Z,2.42
2022-07-31T11:37:56.295Z,2.50
2022-07-31T11:40:27.592Z,2.28
2022-07-31T11:43:27.209Z,2.17
2022-07-31T11:45:48.915Z,2.45
2022-07-31T11:48:19.190Z,2.55
2022-07-31T11:50:50.102Z,2.42
2022-07-31T11:53:18.604Z,2.67
2022-07-31T11:55:54.186Z,2.38
2022-07-31T11:58:23.382Z,2.58
2022-07-31T12:00:52.748Z,2.50
2022-07-31T12:03:22.875Z,2.30
2022-07-31T12:05:53.332Z,2.10
2022-07-31T12:08:21.747Z,2.00
2022-07-31T12:10:49.898Z,2.30
2022-07-31T12:13:19.134Z,2.40
2022-07-31T12:16:00.416Z,2.20
2022-07-31T12:18:29.723Z,2.35
2022-07-31T12:21:00.305Z,2.22
2022-07-31T12:23:41.468Z,2.40
2022-07-31T12:26:13.329Z,2.40
2022-07-31T12:28:41.196Z,2.70
2022-07-31T12:31:09.134Z,2.28
2022-07-31T12:33:45.598Z,2.50
2022-07-31T12:36:16.631Z,2.67
2022-07-31T12:38:48.498Z,2.45
2022-07-31T12:41:17.554Z,2.40
2022-07-31T12:43:51.168Z,2.45
2022-07-31T12:46:35.292Z,2.50
2022-07-31T12:49:03.026Z,2.55
2022-07-31T12:51:45.371Z,2.40
2022-07-31T12:54:15.751Z,2.65
2022-07-31T12:56:43.638Z,2.50
2022-07-31T12:59:12.142Z,2.63
2022-07-31T13:01:40.505Z,2.70
2022-07-31T13:04:18.840Z,2.80
2022-07-31T13:06:52.146Z,2.55
2022-07-31T13:09:20.127Z,2.47
2022-07-31T13:11:48.457Z,2.58
2022-07-31T13:14:16.841Z,2.40
2022-07-31T13:16:44.582Z,2.55
2022-07-31T13:19:12.904Z,2.42
2022-07-31T13:21:49.463Z,2.53
2022-07-31T13:24:20.191Z,2.30
2022-07-31T13:26:48.445Z,2.42
2022-07-31T13:29:16.669Z,2.15
2022-07-31T13:31:44.759Z,2.53
2022-07-31T13:34:12.801Z,2.00
2022-07-31T13:36:45.386Z,2.20
2022-07-31T13:39:29.007Z,2.13
2022-07-31T13:41:58.297Z,2.15
2022-07-31T13:44:39.444Z,2.00
2022-07-31T13:47:07.637Z,2.30
2022-07-31T13:49:37.581Z,2.10
2022-07-31T13:52:06.241Z,2.45
2022-07-31T13:54:35.576Z,2.33
2022-07-31T13:57:06.014Z,2.20
2022-07-31T13:59:34.103Z,2.20
2022-07-31T14:02:04.696Z,2.58
2022-07-31T14:04:38.208Z,2.70
2022-07-31T14:07:07.528Z,2.20
2022-07-31T14:09:36.039Z,2.25
2022-07-31T14:12:06.107Z,2.25
2022-07-31T14:14:37.212Z,2.03
2022-07-31T14:17:04.856Z,2.45
2022-07-31T14:19:43.778Z,2.50
2022-07-31T14:22:13.404Z,2.20
2022-07-31T14:24:41.373Z,2.08
2022-07-31T14:27:12.383Z,2.10
2022-07-31T14:29:40.082Z,2.35
2022-07-31T14:32:08.610Z,2.05
2022-07-31T14:34:36.503Z,2.55
2022-07-31T14:37:04.678Z,2.47
2022-07-31T14:39:32.718Z,2.42
2022-07-31T14:42:00.435Z,2.40
2022-07-31T14:44:29.418Z,2.30
2022-07-31T14:46:57.111Z,2.00
2022-07-31T14:49:24.964Z,2.03
2022-07-31T14:52:12.606Z,2.15
2022-07-31T14:54:40.544Z,2.20
2022-07-31T14:57:08.278Z,2.10
2022-07-31T14:59:37.333Z,2.13
2022-07-31T15:02:05.949Z,2.10
2022-07-31T15:04:34.237Z,2.55
2022-07-31T15:07:33.276Z,2.10
2022-07-31T15:09:49.893Z,1.90
2022-07-31T15:12:19.299Z,2.15
2022-07-31T15:14:48.391Z,2.80
2022-07-31T15:17:16.190Z,2.50
2022-07-31T15:19:43.968Z,2.30
2022-07-31T15:22:17.142Z,2.30
2022-07-31T15:24:48.354Z,2.30
2022-07-31T15:27:17.169Z,2.28
2022-07-31T15:30:05.484Z,2.00
2022-07-31T15:32:33.987Z,2.28
2022-07-31T15:35:01.858Z,2.00
2022-07-31T15:37:30.132Z,1.98
2022-07-31T15:40:01.904Z,2.22
2022-07-31T15:42:30.951Z,2.28
2022-07-31T15:44:58.687Z,2.00
2022-07-31T15:47:26.502Z,2.00
2022-07-31T15:49:55.684Z,1.92
2022-07-31T15:52:23.540Z,2.00
2022-07-31T15:54:52.566Z,2.30
2022-07-31T15:57:20.873Z,2.13
2022-07-31T15:59:49.111Z,2.38
2022-07-31T16:02:17.323Z,2.10
2022-07-31T16:04:53.317Z,2.17
2022-07-31T16:08:30.767Z,2.33
2022-07-31T16:10:16.519Z,1.95
2022-07-31T16:12:46.294Z,2.00
2022-07-31T16:15:14.925Z,2.10
2022-07-31T16:17:44.116Z,1.92
2022-07-31T16:20:25.452Z,2.38
2022-07-31T16:22:57.963Z,2.03
2022-07-31T16:25:26.477Z,2.08
2022-07-31T16:27:54.291Z,1.92
2022-07-31T16:30:22.815Z,2.10
2022-07-31T16:32:51.495Z,2.40
2022-07-31T16:35:19.393Z,1.98
2022-07-31T16:37:50.903Z,2.50
2022-07-31T16:40:29.150Z,2.28
2022-07-31T16:43:01.748Z,2.30
2022-07-31T16:45:30.760Z,2.50
2022-07-31T16:47:58.752Z,1.92
2022-07-31T16:50:26.924Z,1.98
2022-07-31T16:52:55.360Z,1.83
2022-07-31T16:55:55.419Z,2.13
2022-07-31T16:58:15.158Z,2.20
2022-07-31T17:00:43.853Z,2.40
2022-07-31T17:03:59.007Z,1.73
2022-07-31T17:06:00.043Z,1.45
2022-07-31T17:08:30.075Z,1.92
2022-07-31T17:10:59.216Z,2.08
2022-07-31T17:13:27.265Z,1.98
2022-07-31T17:15:55.140Z,1.80
2022-07-31T17:18:25.462Z,2.00
2022-07-31T17:20:56.019Z,1.80
2022-07-31T17:23:43.629Z,2.00
2022-07-31T17:26:22.276Z,2.10
2022-07-31T17:28:51.009Z,1.70
2022-07-31T17:31:30.314Z,1.85
2022-07-31T17:34:01.378Z,2.05
2022-07-31T17:36:31.457Z,2.13
2022-07-31T17:39:07.781Z,1.60
2022-07-31T17:41:41.029Z,1.75
2022-07-31T17:44:08.986Z,1.80
2022-07-31T17:46:48.285Z,2.05
2022-07-31T17:49:20.461Z,2.08
2022-07-31T17:52:05.268Z,1.83
2022-07-31T17:54:40.268Z,1.58
2022-07-31T17:57:36.563Z,1.75
2022-07-31T18:00:07.930Z,1.90
2022-07-31T18:02:35.901Z,1.80
2022-07-31T18:05:03.898Z,1.85
2022-07-31T18:07:31.764Z,1.88
2022-07-31T18:09:59.653Z,1.60
2022-07-31T18:12:27.618Z,2.10
2022-07-31T18:14:56.651Z,2.20
2022-07-31T18:17:24.396Z,1.80
2022-07-31T18:19:52.204Z,1.95
2022-07-31T18:22:19.945Z,1.98
2022-07-31T18:24:47.706Z,2.20
2022-07-31T18:27:15.927Z,2.13
2022-07-31T18:29:47.340Z,2.30
2022-07-31T18:32:25.848Z,2.00
2022-07-31T18:34:53.593Z,2.33
2022-07-31T18:37:21.342Z,2.25
2022-07-31T18:39:50.518Z,2.28
2022-07-31T18:42:18.481Z,2.50
2022-07-31T18:44:46.610Z,2.72
2022-07-31T18:47:14.450Z,2.53
2022-07-31T18:50:59.214Z,2.40
2022-07-31T18:52:31.378Z,2.50
2022-07-31T18:54:59.161Z,2.47
2022-07-31T18:57:26.930Z,2.38
2022-07-31T18:59:54.613Z,2.55
2022-07-31T19:02:24.213Z,2.80
2022-07-31T19:04:56.710Z,2.60
2022-07-31T19:07:25.636Z,2.83
2022-07-31T19:09:53.328Z,3.30
2022-07-31T19:12:21.168Z,4.80
2022-07-31T19:18:36.610Z,3.60
2022-07-31T19:21:19.388Z,3.53
2022-07-31T19:23:54.325Z,3.97
2022-07-31T19:26:22.252Z,3.63
2022-07-31T19:28:50.087Z,3.42
2022-07-31T19:31:18.302Z,3.75
2022-07-31T19:33:46.513Z,3.08
2022-07-31T19:36:16.340Z,3.17
2022-07-31T19:38:55.702Z,3.50
2022-07-31T19:41:24.936Z,2.90
2022-07-31T19:43:52.832Z,2.90
2022-07-31T19:46:23.693Z,2.80
2022-07-31T19:48:51.619Z,3.30
2022-07-31T19:51:20.905Z,3.28
2022-07-31T19:53:55.111Z,4.43
2022-07-31T19:56:22.841Z,4.00
2022-07-31T19:58:51.399Z,4.20
2022-07-31T20:01:21.955Z,3.10
2022-07-31T20:03:50.162Z,3.47
2022-07-31T20:06:20.276Z,3.63
2022-07-31T20:08:50.187Z,3.33
2022-07-31T20:11:18.252Z,3.38
2022-07-31T20:13:46.075Z,3.70
2022-07-31T20:16:15.173Z,3.45
2022-07-31T20:19:09.809Z,3.38
2022-07-31T20:21:44.005Z,3.45
2022-07-31T20:24:13.231Z,3.10
2022-07-31T20:49:19.325Z,2.95
2022-07-31T20:52:24.055Z,3.10
2022-07-31T20:55:19.584Z,3.40
2022-07-31T20:57:48.688Z,3.33
2022-07-31T21:00:17.021Z,3.15
2022-07-31T21:02:46.490Z,3.10
2022-07-31T21:05:26.908Z,3.17
2022-07-31T21:08:01.393Z,3.33
2022-07-31T21:10:30.216Z,3.30
2022-07-31T21:12:59.569Z,3.25
2022-07-31T21:15:41.752Z,3.33
2022-07-31T21:18:12.881Z,3.20
2022-07-31T21:20:49.827Z,3.70
2022-07-31T21:23:25.276Z,3.05
2022-07-31T21:25:54.397Z,3.20
2022-07-31T21:28:24.730Z,3.47
2022-07-31T21:30:53.770Z,3.50
2022-07-31T21:34:15.715Z,3.10
2022-07-31T22:00:33.339Z,3.28
2022-07-31T22:03:04.028Z,3.58
2022-07-31T22:05:55.578Z,3.05
2022-07-31T22:08:23.430Z,3.28
2022-07-31T22:10:52.778Z,3.15
2022-07-31T22:13:23.136Z,3.17
2022-07-31T22:15:58.601Z,3.60
2022-07-31T22:18:29.122Z,3.03
2022-07-31T22:20:57.501Z,3.58
2022-07-31T22:23:25.526Z,3.20
2022-07-31T22:26:02.667Z,3.20
2022-07-31T22:28:30.836Z,3.55
2022-07-31T22:31:03.788Z,3.47
2022-07-31T22:33:31.809Z,2.80
2022-07-31T22:36:02.689Z,2.80
2022-07-31T22:38:31.614Z,3.50
2022-07-31T22:41:00.144Z,3.20
2022-07-31T22:44:10.352Z,3.15
2022-07-31T22:46:17.370Z,2.85
2022-07-31T22:48:48.180Z,3.20
2022-07-31T22:51:16.213Z,3.30
2022-07-31T22:53:44.449Z,3.22
2022-07-31T22:56:16.807Z,3.10
2022-07-31T22:58:44.633Z,3.30
2022-07-31T23:01:12.666Z,2.70
2022-07-31T23:03:41.813Z,2.92
2022-07-31T23:06:31.249Z,3.03
2022-07-31T23:08:57.697Z,2.72
2022-07-31T23:11:25.681Z,3.75
2022-07-31T23:13:54.025Z,3.13
2022-07-31T23:16:21.846Z,3.10
2022-07-31T23:18:51.518Z,3.70
2022-07-31T23:21:22.902Z,2.90
2022-07-31T23:23:51.848Z,3.10
2022-07-31T23:26:20.148Z,3.03
2022-07-31T23:28:48.065Z,3.10
2022-07-31T23:31:19.199Z,2.90
2022-07-31T23:33:48.100Z,2.80
2022-07-31T23:36:17.907Z,2.60
2022-07-31T23:38:49.655Z,2.90
2022-07-31T23:41:38.225Z,3.00
2022-07-31T23:44:05.517Z,2.70
2022-07-31T23:46:38.937Z,3.20
2022-07-31T23:49:08.880Z,3.00
2022-07-31T23:51:38.296Z,2.70
2022-07-31T23:54:06.263Z,2.70
2022-07-31T23:56:36.633Z,2.40
2022-07-31T23:59:04.702Z,2.65
